createdAt,value
2022-10-09T08:48:05.213Z,15.43000031
2022-10-09T08:48:44.864Z,15.35000038
2022-10-09T08:49:44.671Z,15.27000046
2022-10-09T08:50:39.345Z,15.14000034
2022-10-09T08:51:38.849Z,15.01000023
2022-10-09T08:52:33.117Z,14.86999989
2022-10-09T08:53:29.844Z,14.76000023
2022-10-09T08:54:28.751Z,14.68999958
2022-10-09T08:55:23.141Z,14.63000011
2022-10-09T08:56:21.281Z,14.57999992
2022-10-09T08:57:14.892Z,14.5
2022-10-09T08:58:13.452Z,14.46000004
2022-10-09T08:59:07.912Z,14.38000011
2022-10-09T09:00:04.593Z,14.35999966
2022-10-09T09:01:01.414Z,14.32999992
2022-10-09T09:01:54.881Z,14.26000023
2022-10-09T09:03:46.573Z,14.13000011
2022-10-09T09:04:43.634Z,14.06000042
2022-10-09T09:05:42.637Z,14.06000042
2022-10-09T09:06:33.563Z,14.05000019
2022-10-09T09:08:24.620Z,14.02000046
2022-10-09T09:09:20.554Z,14
2022-10-09T09:10:21.548Z,14
2022-10-09T09:11:12.079Z,13.98999977
2022-10-09T09:12:13.194Z,13.98999977
2022-10-09T09:13:03.716Z,13.98999977
2022-10-09T09:14:04.691Z,14.01000023
2022-10-09T09:14:55.343Z,14.02999973
2022-10-09T09:15:56.694Z,14.02999973
2022-10-09T09:16:47.334Z,14.02999973
2022-10-09T09:18:42.683Z,14
2022-10-09T09:19:36.956Z,13.97999954
2022-10-09T09:20:29.828Z,14
2022-10-09T09:21:29.071Z,14.02000046
2022-10-09T09:22:53.793Z,14
2022-10-09T09:23:33.712Z,14.02000046
2022-10-09T09:24:34.332Z,14.07999992
2022-10-09T09:25:30.423Z,14.09000015
2022-10-09T09:26:30.379Z,14.07999992
2022-10-09T09:27:26.190Z,14.06999969
2022-10-09T09:28:26.867Z,14.09000015
2022-10-09T09:29:23.318Z,14.10000038
2022-10-09T09:30:23.664Z,14.07999992
2022-10-09T09:31:19.351Z,14.10000038
2022-10-09T09:33:15.390Z,14.13000011
2022-10-09T09:34:18.632Z,14.14999962
2022-10-09T09:35:12.077Z,14.18000031
2022-10-09T09:36:12.967Z,14.19999981
2022-10-09T09:37:10.052Z,14.19999981
2022-10-09T09:38:09.658Z,14.22999954
2022-10-09T09:40:07.831Z,14.25
2022-10-09T09:40:23.800Z,14.25
2022-10-09T09:40:35.657Z,14.27999973
2022-10-09T09:40:40.523Z,14.27999973
2022-10-09T09:41:03.959Z,14.32999992
2022-10-09T09:42:05.042Z,14.39000034
2022-10-09T09:44:02.520Z,14.48999977
2022-10-09T09:44:58.798Z,14.52999973
2022-10-09T09:45:59.856Z,14.53999996
2022-10-09T09:46:56.462Z,14.55000019
2022-10-09T09:48:58.756Z,14.60000038
2022-10-09T09:49:52.657Z,14.63000011
2022-10-09T09:51:16.343Z,14.64999962
2022-10-09T09:51:23.323Z,14.64999962
2022-10-09T09:51:53.509Z,14.68000031
2022-10-09T09:52:51.564Z,14.77000046
2022-10-09T09:53:52.648Z,14.84000015
2022-10-09T09:54:50.610Z,14.92000008
2022-10-09T09:55:52.279Z,14.98999977
2022-10-09T09:57:12.871Z,15.02999973
2022-10-09T09:57:24.294Z,15.02999973
2022-10-09T09:57:50.895Z,15.06999969
2022-10-09T09:58:52.736Z,15.14000034
2022-10-09T09:59:53.571Z,15.23999977
2022-10-09T10:00:52.817Z,15.31000042
2022-10-09T10:01:54.414Z,15.31999969
2022-10-09T10:03:57.467Z,15.42000008
2022-10-09T10:05:24.575Z,15.46000004
2022-10-09T10:06:05.540Z,15.52999973
2022-10-09T10:07:04.678Z,15.53999996
2022-10-09T10:08:05.938Z,15.56000042
2022-10-09T10:09:03.862Z,15.53999996
2022-10-09T10:10:01.925Z,15.57999992
2022-10-09T10:11:01.265Z,15.56000042
2022-10-09T10:12:03.112Z,15.55000019
2022-10-09T10:14:02.391Z,15.67000008
2022-10-09T10:15:00.492Z,15.77000046
2022-10-09T10:16:01.973Z,15.78999996
2022-10-09T10:17:00.013Z,15.77000046
2022-10-09T10:18:58.706Z,15.85999966
2022-10-09T10:20:01.105Z,15.97999954
2022-10-09T10:20:59.139Z,16.04000092
2022-10-09T10:22:03.592Z,16.09000015
2022-10-09T10:22:58.583Z,16.12999916
2022-10-09T10:24:58.452Z,16.23999977
2022-10-09T10:26:00.865Z,16.27000046
2022-10-09T10:26:58.830Z,16.29999924
2022-10-09T10:28:58.299Z,16.38999939
2022-10-09T10:30:03.264Z,16.42000008
2022-10-09T10:30:58.625Z,16.45999908
2022-10-09T10:32:02.414Z,16.45000076
2022-10-09T10:32:56.930Z,16.45999908
2022-10-09T10:34:00.846Z,16.48999977
2022-10-09T10:34:55.098Z,16.5
2022-10-09T10:35:59.229Z,16.5
2022-10-09T10:36:53.684Z,16.43000031
2022-10-09T10:38:18.678Z,16.36000061
2022-10-09T10:38:59.525Z,16.38999939
2022-10-09T10:39:58.615Z,16.44000053
2022-10-09T10:40:59.362Z,16.40999985
2022-10-09T10:41:55.500Z,16.37000084
2022-10-09T10:42:58.754Z,16.29999924
2022-10-09T10:43:52.701Z,16.30999947
2022-10-09T10:44:53.124Z,16.30999947
2022-10-09T10:45:49.442Z,16.29999924
2022-10-09T10:46:49.846Z,16.28000069
2022-10-09T10:47:45.985Z,16.22999954
2022-10-09T10:48:45.681Z,16.23999977
2022-10-09T10:49:44.469Z,16.25
2022-10-09T10:50:40.004Z,16.20999908
2022-10-09T10:51:43.087Z,16.18000031
2022-10-09T10:52:36.507Z,16.12999916
2022-10-09T10:53:39.021Z,16.06999969
2022-10-09T10:54:32.512Z,16.05999947
2022-10-09T10:55:30.158Z,16.07999992
2022-10-09T10:56:30.300Z,16.04999924
2022-10-09T10:58:28.633Z,15.94999981
2022-10-09T10:59:21.788Z,15.94999981
2022-10-09T11:00:21.928Z,15.97000027
2022-10-09T11:01:17.454Z,15.97999954
2022-10-09T11:03:13.292Z,15.98999977
2022-10-09T11:04:15.732Z,15.97000027
2022-10-09T11:05:10.273Z,15.97999954
2022-10-09T11:06:09.098Z,15.98999977
2022-10-09T11:07:04.630Z,15.97000027
2022-10-09T11:08:07.412Z,15.97000027
2022-10-09T11:09:00.188Z,15.96000004
2022-10-09T11:10:03.168Z,15.96000004
2022-10-09T11:10:55.825Z,15.96000004
2022-10-09T11:11:58.509Z,15.94999981
2022-10-09T11:13:51.291Z,15.89000034
2022-10-09T11:14:46.688Z,15.89999962
2022-10-09T11:15:46.767Z,15.89999962
2022-10-09T11:17:10.282Z,15.88000011
2022-10-09T11:17:50.634Z,15.88000011
2022-10-09T11:18:51.168Z,15.90999985
2022-10-09T11:19:46.711Z,15.93999958
2022-10-09T11:20:47.165Z,15.92000008
2022-10-09T11:21:44.253Z,15.90999985
2022-10-09T11:23:39.769Z,15.89999962
2022-10-09T11:24:42.956Z,15.92000008
2022-10-09T11:25:36.094Z,15.90999985
2022-10-09T11:26:39.493Z,15.90999985
2022-10-09T11:27:32.789Z,15.92000008
2022-10-09T11:28:33.287Z,15.93999958
2022-10-09T11:29:28.819Z,15.94999981
2022-10-09T11:30:29.253Z,15.92000008
2022-10-09T11:31:24.863Z,15.85999966
2022-10-09T11:33:26.082Z,15.82999992
2022-10-09T11:34:19.720Z,15.81999969
2022-10-09T11:35:22.432Z,15.80000019
2022-10-09T11:36:16.573Z,15.81000042
2022-10-09T11:37:19.117Z,15.81999969
2022-10-09T11:38:12.176Z,15.85000038
2022-10-09T11:39:11.602Z,15.86999989
2022-10-09T11:40:13.897Z,15.86999989
2022-10-09T11:41:07.772Z,15.89000034
2022-10-09T11:42:10.607Z,15.89000034
2022-10-09T11:43:03.923Z,15.89999962
2022-10-09T11:44:04.071Z,15.89999962
2022-10-09T11:44:59.811Z,15.89999962
2022-10-09T11:46:00.356Z,15.89999962
2022-10-09T11:46:58.316Z,15.85999966
2022-10-09T11:47:58.634Z,15.85000038
2022-10-09T11:48:52.512Z,15.84000015
2022-10-09T11:49:55.465Z,15.80000019
2022-10-09T11:50:48.793Z,15.77000046
2022-10-09T11:51:51.759Z,15.77000046
2022-10-09T11:54:22.255Z,15.82999992
2022-10-09T11:55:02.732Z,15.86999989
2022-10-09T11:56:02.829Z,15.90999985
2022-10-09T11:56:57.906Z,15.89999962
2022-10-09T11:57:55.286Z,15.89000034
2022-10-09T11:58:55.448Z,15.86999989
2022-10-09T11:59:50.504Z,15.84000015
2022-10-09T12:00:48.054Z,15.81000042
2022-10-09T12:01:47.626Z,15.78999996
2022-10-09T12:02:43.295Z,15.72000027
2022-10-09T12:03:40.506Z,15.72999954
2022-10-09T12:04:54.510Z,15.72999954
2022-10-09T12:04:54.559Z,15.72999954
2022-10-09T12:04:55.910Z,15.72999954
2022-10-09T12:05:38.403Z,15.76000023
2022-10-09T12:06:33.706Z,15.80000019
2022-10-09T12:07:33.613Z,15.78999996
2022-10-09T12:08:28.465Z,15.78999996
2022-10-09T12:09:28.337Z,15.77999973
2022-10-09T12:10:23.555Z,15.78999996
2022-10-09T12:11:23.233Z,15.78999996
2022-10-09T12:13:20.781Z,15.77000046
2022-10-09T12:14:16.079Z,15.78999996
2022-10-09T12:14:20.326Z,15.78999996
2022-10-09T12:15:16.169Z,15.80000019
2022-10-09T12:16:09.151Z,15.81999969
2022-10-09T12:18:15.225Z,15.77999973
2022-10-09T12:18:55.614Z,15.80000019
2022-10-09T12:20:00.898Z,15.80000019
2022-10-09T12:20:55.880Z,15.78999996
2022-10-09T12:21:51.942Z,15.77000046
2022-10-09T12:23:13.819Z,15.77000046
2022-10-09T12:23:21.760Z,15.77000046
2022-10-09T12:23:25.670Z,15.77000046
2022-10-09T12:23:50.232Z,15.80000019
2022-10-09T12:24:45.728Z,15.81999969
2022-10-09T12:25:46.018Z,15.84000015
2022-10-09T12:26:41.551Z,15.81999969
2022-10-09T12:27:41.663Z,15.80000019
2022-10-09T12:28:37.288Z,15.78999996
2022-10-09T12:29:37.394Z,15.77000046
2022-10-09T12:30:32.773Z,15.77000046
2022-10-09T12:31:33.348Z,15.76000023
2022-10-09T12:33:16.159Z,15.73999977
2022-10-09T12:33:56.566Z,15.77000046
2022-10-09T12:34:55.152Z,15.77000046
2022-10-09T12:35:54.782Z,15.76000023
2022-10-09T12:36:51.003Z,15.75
2022-10-09T12:38:32.331Z,15.72000027
2022-10-09T12:39:12.833Z,15.73999977
2022-10-09T12:40:10.458Z,15.75
2022-10-09T12:41:08.578Z,15.75
2022-10-09T12:43:16.660Z,15.69999981
2022-10-09T12:43:57.014Z,15.69999981
2022-10-09T12:44:55.857Z,15.72000027
2022-10-09T12:45:56.357Z,15.72999954
2022-10-09T12:46:52.013Z,15.72999954
2022-10-09T12:47:52.298Z,15.71000004
2022-10-09T12:48:50.674Z,15.71000004
2022-10-09T12:49:50.230Z,15.67000008
2022-10-09T12:50:45.671Z,15.64000034
2022-10-09T12:51:16.711Z,15.63000011
2022-10-09T12:52:13.851Z,15.64999962
2022-10-09T12:53:10.854Z,15.64000034
2022-10-09T12:54:11.919Z,15.64999962
2022-10-09T12:55:07.277Z,15.64000034
2022-10-09T12:56:07.297Z,15.63000011
2022-10-09T12:57:02.640Z,15.63000011
2022-10-09T12:58:59.525Z,15.60000038
2022-10-09T12:59:57.333Z,15.57999992
2022-10-09T13:00:57.448Z,15.60000038
2022-10-09T13:01:52.930Z,15.57999992
2022-10-09T13:03:48.470Z,15.60999966
2022-10-09T13:04:46.470Z,15.64999962
2022-10-09T13:06:56.049Z,15.68999958
2022-10-09T13:07:37.431Z,15.71000004
2022-10-09T13:08:35.504Z,15.75
2022-10-09T13:09:34.023Z,15.75
2022-10-09T13:10:33.433Z,15.77000046
2022-10-09T13:11:28.804Z,15.77999973
2022-10-09T13:13:14.177Z,15.78999996
2022-10-09T13:13:54.770Z,15.81000042
2022-10-09T13:14:52.488Z,15.85000038
2022-10-09T13:15:54.277Z,15.85000038
2022-10-09T13:16:49.800Z,15.84000015
2022-10-09T13:17:50.324Z,15.82999992
2022-10-09T13:18:45.856Z,15.81999969
2022-10-09T13:19:45.469Z,15.81999969
2022-10-09T13:20:40.873Z,15.81000042
2022-10-09T13:21:41.288Z,15.78999996
2022-10-09T13:22:36.675Z,15.77999973
2022-10-09T13:23:36.727Z,15.78999996
2022-10-09T13:24:32.174Z,15.78999996
2022-10-09T13:25:31.899Z,15.78999996
2022-10-09T13:26:30.178Z,15.80000019
2022-10-09T13:30:58.426Z,16.53000069
2022-10-09T13:31:37.017Z,16.61000061
2022-10-09T13:33:30.094Z,16.48999977
2022-10-09T13:34:29.069Z,16.44000053
2022-10-09T13:35:24.577Z,16.42000008
2022-10-09T13:36:22.083Z,16.37000084
2022-10-09T13:37:15.864Z,16.29999924
2022-10-09T13:38:14.408Z,16.28000069
2022-10-09T13:39:09.862Z,16.25
2022-10-09T13:40:07.152Z,16.20999908
2022-10-09T13:41:01.496Z,16.18000031
2022-10-09T13:42:01.007Z,16.12000084
2022-10-09T13:43:53.111Z,16.11000061
2022-10-09T13:44:47.585Z,16.09000015
2022-10-09T13:45:47.724Z,16.07999992
2022-10-09T13:46:38.433Z,16.06999969
2022-10-09T13:47:34.196Z,16.04000092
2022-10-09T13:48:32.462Z,16.02000046
2022-10-09T13:49:25.909Z,16.02000046
2022-10-09T13:50:26.762Z,16
2022-10-09T13:51:19.162Z,15.97000027
2022-10-09T13:52:19.508Z,15.94999981
2022-10-09T13:53:10.998Z,15.96000004
2022-10-09T13:54:12.761Z,15.96000004
2022-10-09T13:55:03.774Z,15.94999981
2022-10-09T13:56:00.976Z,15.94999981
2022-10-09T13:56:56.055Z,15.93999958
2022-10-09T13:58:48.401Z,15.93999958
2022-10-09T13:59:48.907Z,15.93999958
2022-10-09T14:00:39.920Z,15.94999981
2022-10-09T14:01:41.051Z,15.96000004
2022-10-09T14:04:17.167Z,15.98999977
2022-10-09T14:04:57.264Z,16.04000092
2022-10-09T14:05:56.858Z,16.07999992
2022-10-09T14:06:51.582Z,16.07999992
2022-10-09T14:08:57.100Z,16.18000031
2022-10-09T14:09:36.976Z,16.23999977
2022-10-09T14:10:35.272Z,16.20000076
2022-10-09T14:11:34.092Z,16.19000053
2022-10-09T14:13:22.103Z,16.17000008
2022-10-09T14:14:04.366Z,16.19000053
2022-10-09T14:15:01.850Z,16.20000076
2022-10-09T14:16:01.862Z,16.18000031
2022-10-09T14:18:23.405Z,16.19000053
2022-10-09T14:28:00.244Z,17.09000015
2022-10-09T14:28:39.993Z,17.03000069
2022-10-09T14:29:39.828Z,16.95999908
2022-10-09T14:30:34.390Z,16.86000061
2022-10-09T14:31:34.012Z,16.78000069
2022-10-09T14:38:37.600Z,17.54000092
2022-10-09T14:39:17.302Z,17.53000069
2022-10-09T14:40:13.907Z,17.44000053
2022-10-09T15:07:12.191Z,18.35000038
2022-10-09T15:07:57.159Z,18.39999962
2022-10-09T15:09:00.393Z,18.32999992
2022-10-09T15:09:05.653Z,18.32999992
2022-10-09T15:09:56.829Z,18.15999985
2022-10-09T15:17:12.630Z,18.17000008
2022-10-09T15:18:53.671Z,18.20000076
2022-10-09T16:27:46.770Z,18.70999908
2022-10-09T16:28:27.293Z,18.62999916
2022-10-09T16:51:43.337Z,17.95000076
2022-10-09T16:52:24.915Z,17.85000038
2022-10-09T16:54:24.999Z,17.31999969
2022-10-09T16:55:21.026Z,16.97999954
2022-10-09T16:56:23.544Z,16.69000053
2022-10-09T16:57:19.720Z,16.43000031
2022-10-09T16:59:14.558Z,15.98999977
2022-10-09T17:00:19.070Z,15.81999969
2022-10-09T17:01:10.282Z,15.64999962
2022-10-09T17:02:08.322Z,15.53999996
2022-10-09T17:04:04.656Z,15.32999992
2022-10-09T17:04:55.251Z,15.19999981
2022-10-09T17:05:59.701Z,15.06000042
2022-10-09T17:06:56.048Z,14.93999958
2022-10-09T17:08:47.343Z,14.76000023
2022-10-09T17:09:45.617Z,14.64999962
2022-10-09T17:10:39.046Z,14.56999969
2022-10-09T17:11:37.429Z,14.47999954
2022-10-09T17:13:34.234Z,14.35999966
2022-10-09T17:14:36.193Z,14.27000046
2022-10-09T17:15:26.608Z,14.21000004
2022-10-09T17:16:24.459Z,14.13000011
2022-10-09T17:18:28.858Z,14.14000034
2022-10-09T17:19:32.374Z,14.15999985
2022-10-09T17:20:26.343Z,14.10999966
2022-10-09T17:21:27.829Z,14.06000042
2022-10-09T17:21:35.492Z,14.06000042
2022-10-09T17:23:13.674Z,14.09000015
2022-10-09T17:23:57.204Z,14.07999992
2022-10-09T17:24:55.648Z,14.06000042
2022-10-09T17:25:58.939Z,14.01000023
2022-10-09T17:27:00.314Z,13.92000008
2022-10-09T17:27:57.521Z,13.92000008
2022-10-09T22:47:44.319Z,16.09000015
2022-10-09T22:48:43.270Z,16.04999924
2022-10-09T22:49:43.920Z,15.85999966
2022-10-09T22:50:43.123Z,15.56999969
2022-10-09T22:51:46.003Z,15.27000046
2022-10-09T22:53:46.641Z,14.73999977
2022-10-09T22:54:41.973Z,14.55000019
2022-10-09T22:55:42.143Z,14.36999989
2022-10-09T22:56:37.689Z,14.18000031
2022-10-09T22:57:40.404Z,14.02999973
2022-10-09T22:59:40.030Z,13.81999969
2022-10-09T23:00:37.995Z,13.72000027
2022-10-09T23:01:39.541Z,13.60999966
2022-10-09T23:02:35.829Z,13.53999996
2022-10-09T23:04:46.197Z,13.35999966
2022-10-09T23:05:48.964Z,13.27999973
2022-10-09T23:06:46.899Z,13.21000004
2022-10-09T23:07:43.695Z,13.15999985
2022-10-09T23:08:42.549Z,13.11999989
2022-10-09T23:09:44.880Z,13.06000042
2022-10-09T23:10:45.051Z,13
2022-10-09T23:11:41.107Z,12.97999954
2022-10-09T23:12:43.586Z,12.96000004
2022-10-09T23:14:46.562Z,12.90999985
2022-10-09T23:15:40.239Z,12.88000011
2022-10-09T23:17:26.122Z,12.89000034
2022-10-09T23:18:05.028Z,12.93999958
2022-10-09T23:19:06.639Z,12.93999958
2022-10-09T23:20:02.330Z,12.92000008
2022-10-09T23:21:01.839Z,12.89000034
2022-10-09T23:21:56.914Z,12.85000038
2022-10-09T23:23:56.706Z,12.77000046
2022-10-09T23:24:52.373Z,12.71000004
2022-10-09T23:25:50.830Z,12.65999985
2022-10-09T23:26:51.989Z,12.64000034
2022-10-09T23:28:49.600Z,12.61999989
2022-10-09T23:29:45.009Z,12.59000015
2022-10-09T23:30:46.133Z,12.56999969
2022-10-09T23:31:43.283Z,12.53999996
2022-10-09T23:32:44.776Z,12.56000042
2022-10-09T23:34:39.939Z,12.52999973
2022-10-09T23:35:40.002Z,12.52000046
2022-10-09T23:36:36.022Z,12.48999977
2022-10-09T23:37:39.932Z,12.48999977
2022-10-09T23:39:42.174Z,12.46000004
2022-10-09T23:40:35.434Z,12.43999958
2022-10-09T23:41:35.442Z,12.44999981
2022-10-09T23:42:36.591Z,12.47000027
2022-10-09T23:44:32.303Z,12.46000004
2022-10-09T23:45:34.656Z,12.46000004
2022-10-09T23:46:28.225Z,12.46000004
2022-10-09T23:47:52.173Z,12.47000027
2022-10-09T23:48:32.417Z,12.5
2022-10-09T23:49:30.058Z,12.51000023
2022-10-09T23:50:33.255Z,12.51000023
2022-10-09T23:51:31.420Z,12.5
2022-10-09T23:52:34.175Z,12.48999977
2022-10-09T23:54:33.057Z,12.47000027
2022-10-09T23:55:38.745Z,12.46000004
2022-10-09T23:56:37.663Z,12.43000031
2022-10-09T23:57:39.376Z,12.43999958
2022-10-09T23:58:39.399Z,12.44999981
2022-10-09T23:59:42.134Z,12.43999958
